createdAt,value
2023-03-27T00:01:13.309Z,0.30
2023-03-27T00:03:41.395Z,0.50
2023-03-27T00:06:12.411Z,0.43
2023-03-27T00:08:39.696Z,0.55
2023-03-27T00:11:08.277Z,0.65
2023-03-27T00:13:36.784Z,0.95
2023-03-27T00:16:17.193Z,0.75
2023-03-27T00:18:45.185Z,2.63
2023-03-27T00:21:12.833Z,0.43
2023-03-27T00:23:40.705Z,1.48
2023-03-27T00:26:08.280Z,6.07
2023-03-27T00:28:36.448Z,1.13
2023-03-27T00:31:04.151Z,2.08
2023-03-27T00:33:31.434Z,1.00
2023-03-27T00:35:59.075Z,2.65
2023-03-27T00:38:26.337Z,1.77
2023-03-27T00:40:55.605Z,0.63
2023-03-27T00:43:34.030Z,3.33
2023-03-27T00:46:04.693Z,1.67
2023-03-27T00:48:35.684Z,0.73
2023-03-27T00:51:05.883Z,0.63
2023-03-27T00:53:33.961Z,0.47
2023-03-27T00:56:05.416Z,1.27
2023-03-27T00:58:39.586Z,1.70
2023-03-27T01:01:10.087Z,0.70
2023-03-27T01:03:42.287Z,1.67
2023-03-27T01:06:14.062Z,0.85
2023-03-27T01:08:44.033Z,1.92
2023-03-27T01:11:48.925Z,1.63
2023-03-27T01:14:37.508Z,1.55
2023-03-27T01:17:32.618Z,2.05
2023-03-27T01:20:14.038Z,1.90
2023-03-27T01:22:44.761Z,0.70
2023-03-27T01:25:42.127Z,0.77
2023-03-27T01:28:52.178Z,0.75
2023-03-27T01:31:33.617Z,1.05
2023-03-27T01:34:01.114Z,2.85
2023-03-27T01:37:17.064Z,3.33
2023-03-27T01:39:44.852Z,1.40
2023-03-27T01:42:32.837Z,2.67
2023-03-27T01:45:14.977Z,2.17
2023-03-27T01:48:04.182Z,1.30
2023-03-27T01:50:54.570Z,3.45
2023-03-27T01:53:35.010Z,1.50
2023-03-27T01:56:26.459Z,1.10
2023-03-27T01:59:04.132Z,2.60
2023-03-27T02:01:37.855Z,1.10
2023-03-27T02:04:09.542Z,0.60
2023-03-27T02:06:43.822Z,1.80
2023-03-27T02:09:33.765Z,1.27
2023-03-27T02:12:07.702Z,2.67
2023-03-27T02:14:42.370Z,1.60
2023-03-27T02:17:14.443Z,2.38
2023-03-27T02:19:58.401Z,1.85
2023-03-27T02:22:38.382Z,4.43
2023-03-27T02:25:27.218Z,1.75
2023-03-27T02:28:03.556Z,1.13
2023-03-27T02:30:46.542Z,1.10
2023-03-27T02:33:56.256Z,2.78
2023-03-27T02:36:43.494Z,3.22
2023-03-27T02:39:54.020Z,1.77
2023-03-27T02:42:31.692Z,2.35
2023-03-27T02:45:38.598Z,1.77
2023-03-27T02:48:10.144Z,1.75
2023-03-27T02:50:44.124Z,1.33
2023-03-27T02:53:16.786Z,1.17
2023-03-27T02:58:19.911Z,4.13
2023-03-27T03:00:59.506Z,4.15
2023-03-27T03:03:36.185Z,1.92
2023-03-27T03:06:30.248Z,1.35
2023-03-27T03:09:07.195Z,3.17
2023-03-27T03:11:37.453Z,2.55
2023-03-27T03:14:05.427Z,2.03
2023-03-27T03:16:34.436Z,2.28
2023-03-27T03:19:03.064Z,4.47
2023-03-27T03:21:32.092Z,2.33
2023-03-27T03:24:00.140Z,2.10
2023-03-27T03:26:28.240Z,3.78
2023-03-27T03:29:00.964Z,2.00
2023-03-27T03:31:43.398Z,2.95
2023-03-27T03:34:16.905Z,2.72
2023-03-27T03:36:49.916Z,3.05
2023-03-27T03:39:22.966Z,2.20
2023-03-27T03:41:51.154Z,2.78
2023-03-27T03:44:19.275Z,1.42
2023-03-27T03:46:46.935Z,4.20
2023-03-27T03:49:20.434Z,5.93
2023-03-27T03:51:48.051Z,2.28
2023-03-27T03:54:32.933Z,2.60
2023-03-27T03:57:00.504Z,2.70
2023-03-27T03:59:28.404Z,2.95
2023-03-27T04:02:28.375Z,2.40
2023-03-27T04:05:00.968Z,3.22
2023-03-27T04:07:36.551Z,3.05
2023-03-27T04:10:22.133Z,2.58
2023-03-27T04:12:50.246Z,2.35
2023-03-27T04:15:37.730Z,2.30
2023-03-27T04:18:24.737Z,2.40
2023-03-27T04:20:54.527Z,2.25
2023-03-27T04:23:32.188Z,3.45
2023-03-27T04:26:02.117Z,2.80
2023-03-27T04:28:51.773Z,3.72
2023-03-27T04:31:39.242Z,4.78
2023-03-27T04:34:40.618Z,2.92
2023-03-27T04:37:26.545Z,3.83
2023-03-27T04:40:25.596Z,3.60
2023-03-27T04:42:55.995Z,2.15
2023-03-27T04:45:25.772Z,2.58
2023-03-27T04:47:54.612Z,4.47
2023-03-27T04:50:22.892Z,4.00
2023-03-27T04:52:51.856Z,3.97
2023-03-27T04:55:23.051Z,4.32
2023-03-27T04:57:50.501Z,2.72
2023-03-27T05:00:20.073Z,3.70
2023-03-27T05:02:47.937Z,2.95
2023-03-27T05:05:32.401Z,3.35
2023-03-27T05:08:05.187Z,6.00
2023-03-27T05:10:32.765Z,4.13
2023-03-27T05:13:01.523Z,3.28
2023-03-27T05:15:32.421Z,2.55
2023-03-27T05:18:02.125Z,3.22
2023-03-27T05:20:31.361Z,3.50
2023-03-27T05:23:05.508Z,2.60
2023-03-27T05:25:33.572Z,3.33
2023-03-27T05:28:03.915Z,3.95
2023-03-27T05:30:34.633Z,3.55
2023-03-27T05:33:20.705Z,3.13
2023-03-27T05:35:50.301Z,4.65
2023-03-27T05:38:19.286Z,3.85
2023-03-27T05:40:57.027Z,3.72
2023-03-27T05:43:25.009Z,4.03
2023-03-27T05:45:52.926Z,4.50
2023-03-27T05:48:20.265Z,3.92
2023-03-27T05:50:47.774Z,4.05
2023-03-27T05:53:20.601Z,4.40
2023-03-27T05:56:12.271Z,3.15
2023-03-27T05:58:51.167Z,3.88
2023-03-27T06:01:18.950Z,3.80
2023-03-27T06:03:46.806Z,3.08
2023-03-27T06:06:18.065Z,2.70
2023-03-27T06:08:46.262Z,3.08
2023-03-27T06:11:15.401Z,4.25
2023-03-27T06:13:46.725Z,3.00
2023-03-27T06:16:21.521Z,3.20
2023-03-27T06:19:09.451Z,3.40
2023-03-27T06:21:44.750Z,2.15
2023-03-27T06:24:12.312Z,8.75
2023-03-27T06:26:41.222Z,3.00
2023-03-27T06:29:09.419Z,1.95
2023-03-27T06:31:45.347Z,3.65
2023-03-27T06:34:32.334Z,2.65
2023-03-27T06:37:05.916Z,2.55
2023-03-27T06:39:40.212Z,2.55
2023-03-27T06:42:08.431Z,1.67
2023-03-27T06:44:45.059Z,2.47
2023-03-27T06:47:48.109Z,1.73
2023-03-27T06:50:50.092Z,5.57
2023-03-27T06:55:49.991Z,3.45
2023-03-27T06:58:19.273Z,3.72
2023-03-27T07:00:47.294Z,3.42
2023-03-27T07:03:19.466Z,2.58
2023-03-27T07:05:58.963Z,4.13
2023-03-27T07:08:31.748Z,6.15
2023-03-27T07:13:41.266Z,1.25
2023-03-27T07:16:14.970Z,1.35
2023-03-27T07:18:43.000Z,1.17
2023-03-27T07:21:10.661Z,1.83
2023-03-27T07:23:38.569Z,1.70
2023-03-27T07:26:09.226Z,1.23
2023-03-27T07:29:03.985Z,0.60
2023-03-27T07:31:49.002Z,0.93
2023-03-27T07:34:19.783Z,1.27
2023-03-27T07:37:09.963Z,0.60
2023-03-27T07:39:41.947Z,0.88
2023-03-27T07:42:09.358Z,0.70
2023-03-27T07:44:51.611Z,2.13
2023-03-27T07:47:18.966Z,1.38
2023-03-27T07:49:46.739Z,2.60
2023-03-27T07:52:17.464Z,3.45
2023-03-27T07:54:57.043Z,2.83
2023-03-27T07:57:31.609Z,3.00
2023-03-27T08:00:11.986Z,1.63
2023-03-27T08:02:52.205Z,1.48
2023-03-27T08:05:20.330Z,2.33
2023-03-27T08:08:00.302Z,1.65
2023-03-27T08:10:42.593Z,6.25
2023-03-27T08:13:12.763Z,1.25
2023-03-27T08:15:40.608Z,0.73
2023-03-27T08:18:19.731Z,2.72
2023-03-27T08:20:48.476Z,0.80
2023-03-27T08:23:16.421Z,1.05
2023-03-27T08:26:14.013Z,2.97
2023-03-27T08:28:54.146Z,1.45
2023-03-27T08:31:25.752Z,1.48
2023-03-27T08:33:54.961Z,1.43
2023-03-27T08:36:27.280Z,3.75
2023-03-27T08:38:55.506Z,2.15
2023-03-27T08:41:41.722Z,1.98
2023-03-27T08:44:32.213Z,2.40
2023-03-27T08:47:10.740Z,0.70
2023-03-27T08:49:52.816Z,2.60
2023-03-27T08:52:27.276Z,1.08
2023-03-27T08:55:26.099Z,1.60
2023-03-27T08:58:05.837Z,1.73
2023-03-27T09:00:40.575Z,2.03
2023-03-27T09:03:35.892Z,1.25
2023-03-27T09:06:20.165Z,1.50
2023-03-27T09:09:07.171Z,1.38
2023-03-27T09:11:44.241Z,0.93
2023-03-27T09:14:48.515Z,1.52
2023-03-27T09:17:23.689Z,1.55
2023-03-27T09:20:17.798Z,0.80
2023-03-27T09:22:53.959Z,5.90
2023-03-27T09:25:51.671Z,1.20
2023-03-27T09:28:59.437Z,0.93
2023-03-27T09:31:35.134Z,5.00
2023-03-27T09:34:12.014Z,0.40
2023-03-27T09:36:39.753Z,1.52
2023-03-27T09:39:15.727Z,3.00
2023-03-27T09:41:51.207Z,1.17
2023-03-27T09:44:27.881Z,0.90
2023-03-27T09:47:19.751Z,0.68
2023-03-27T09:49:53.094Z,0.90
2023-03-27T09:52:44.641Z,6.15
2023-03-27T09:55:32.019Z,0.77
2023-03-27T09:58:15.970Z,1.35
2023-03-27T10:00:43.634Z,1.38
2023-03-27T10:03:17.640Z,2.33
2023-03-27T10:05:48.102Z,1.17
2023-03-27T10:08:30.753Z,1.23
2023-03-27T10:11:22.634Z,0.90
2023-03-27T10:13:55.237Z,0.60
2023-03-27T10:16:27.969Z,0.73
2023-03-27T10:19:01.288Z,1.08
2023-03-27T10:24:19.576Z,1.05
2023-03-27T10:27:12.273Z,0.65
2023-03-27T10:29:58.892Z,2.17
2023-03-27T10:32:47.253Z,0.30
2023-03-27T10:35:40.581Z,0.70
2023-03-27T10:38:22.625Z,2.58
2023-03-27T10:41:09.732Z,0.20
2023-03-27T10:43:46.270Z,0.98
2023-03-27T10:46:18.352Z,1.52
2023-03-27T10:51:46.728Z,1.15
2023-03-27T10:54:34.327Z,1.85
2023-03-27T10:57:23.691Z,0.95
2023-03-27T11:00:11.812Z,5.35
2023-03-27T11:03:12.063Z,2.92
2023-03-27T11:05:46.742Z,1.25
2023-03-27T11:08:54.256Z,0.93
2023-03-27T11:11:42.766Z,1.83
2023-03-27T11:14:19.149Z,0.43
2023-03-27T11:17:00.677Z,1.75
2023-03-27T11:20:00.985Z,2.78
2023-03-27T11:22:42.222Z,0.80
2023-03-27T11:25:39.627Z,1.10
2023-03-27T11:28:24.290Z,1.30
2023-03-27T11:31:12.863Z,1.33
2023-03-27T11:34:00.187Z,2.63
2023-03-27T11:36:34.431Z,1.08
2023-03-27T11:39:45.373Z,1.00
2023-03-27T11:42:23.126Z,1.95
2023-03-27T11:44:51.335Z,1.27
2023-03-27T11:47:36.957Z,2.42
2023-03-27T11:50:15.771Z,0.70
2023-03-27T11:52:47.116Z,0.40
2023-03-27T11:55:56.046Z,1.65
2023-03-27T11:58:30.833Z,1.15
2023-03-27T12:01:12.771Z,1.85
2023-03-27T12:03:57.901Z,1.52
2023-03-27T12:09:39.029Z,1.02
2023-03-27T12:13:18.662Z,0.95
2023-03-27T12:16:17.072Z,1.58
2023-03-27T12:19:39.168Z,1.58
2023-03-27T12:22:44.509Z,2.00
2023-03-27T12:26:07.646Z,1.52
2023-03-27T12:29:23.708Z,1.17
2023-03-27T12:32:31.536Z,1.63
2023-03-27T12:35:07.764Z,2.30
2023-03-27T12:37:49.417Z,1.25
2023-03-27T12:40:51.240Z,1.13
2023-03-27T12:43:21.618Z,0.80
2023-03-27T12:46:14.511Z,0.40
2023-03-27T12:49:06.279Z,4.00
2023-03-27T12:51:43.704Z,1.08
2023-03-27T12:54:27.090Z,1.23
2023-03-27T12:57:21.311Z,1.23
2023-03-27T12:59:53.806Z,0.60
2023-03-27T13:02:44.273Z,1.33
2023-03-27T13:05:30.457Z,0.80
2023-03-27T13:08:21.514Z,3.08
2023-03-27T13:11:23.725Z,0.45
2023-03-27T13:14:22.261Z,0.95
2023-03-27T13:17:31.700Z,0.30
2023-03-27T13:20:11.001Z,0.57
2023-03-27T13:23:19.558Z,1.48
2023-03-27T13:25:47.330Z,1.30
2023-03-27T13:28:34.682Z,0.55
2023-03-27T13:31:46.380Z,0.80
2023-03-27T13:34:40.799Z,1.33
2023-03-27T13:37:14.347Z,1.08
2023-03-27T13:40:10.426Z,1.60
2023-03-27T13:42:44.772Z,0.25
2023-03-27T13:45:28.403Z,0.57
2023-03-27T13:48:45.316Z,0.52
2023-03-27T13:51:21.524Z,3.72
2023-03-27T13:54:26.698Z,0.88
2023-03-27T13:57:17.317Z,1.40
2023-03-27T14:00:32.702Z,1.73
2023-03-27T14:03:35.908Z,2.80
2023-03-27T14:06:09.591Z,1.45
2023-03-27T14:09:08.030Z,0.98
2023-03-27T14:12:25.649Z,0.75
2023-03-27T14:15:23.486Z,1.00
2023-03-27T14:18:34.473Z,4.05
2023-03-27T14:21:10.466Z,0.60
2023-03-27T14:23:50.628Z,1.27
2023-03-27T14:26:30.810Z,0.75
2023-03-27T14:29:01.063Z,0.97
2023-03-27T14:31:49.691Z,2.05
2023-03-27T14:34:40.137Z,0.23
2023-03-27T14:37:36.355Z,0.50
2023-03-27T14:40:35.454Z,1.30
2023-03-27T14:43:07.243Z,4.70
2023-03-27T14:45:40.962Z,0.50
2023-03-27T14:48:30.325Z,1.42
2023-03-27T14:51:02.052Z,1.40
2023-03-27T14:53:37.116Z,1.02
2023-03-27T14:56:41.890Z,1.00
2023-03-27T14:59:35.145Z,0.30
2023-03-27T15:02:34.887Z,0.52
2023-03-27T15:05:12.200Z,0.40
2023-03-27T15:07:43.188Z,1.63
2023-03-27T15:10:44.170Z,1.30
2023-03-27T15:13:39.363Z,0.50
2023-03-27T15:16:24.894Z,0.55
2023-03-27T15:19:12.280Z,1.17
2023-03-27T15:22:24.954Z,0.73
2023-03-27T15:25:17.847Z,1.67
2023-03-27T15:27:59.054Z,0.75
2023-03-27T15:30:37.854Z,0.40
2023-03-27T15:33:08.845Z,2.72
2023-03-27T15:35:41.892Z,1.33
2023-03-27T15:38:14.233Z,1.98
2023-03-27T15:40:44.070Z,3.15
2023-03-27T15:43:14.307Z,1.05
2023-03-27T15:45:57.182Z,1.15
2023-03-27T15:48:30.127Z,1.17
2023-03-27T15:51:05.730Z,2.80
2023-03-27T15:53:43.395Z,2.45
2023-03-27T15:56:13.885Z,1.42
2023-03-27T15:58:48.169Z,0.82
2023-03-27T16:01:20.340Z,4.18
2023-03-27T16:06:26.787Z,3.92
2023-03-27T16:08:55.051Z,1.42
2023-03-27T16:11:56.047Z,4.63
2023-03-27T16:14:30.968Z,0.95
2023-03-27T16:17:20.526Z,4.03
2023-03-27T16:20:21.369Z,2.70
2023-03-27T16:22:50.155Z,2.83
2023-03-27T16:25:17.567Z,1.00
2023-03-27T16:27:51.354Z,2.08
2023-03-27T16:30:32.134Z,4.22
2023-03-27T16:33:00.184Z,1.85
2023-03-27T16:35:28.790Z,1.45
2023-03-27T16:37:56.662Z,2.00
2023-03-27T16:40:24.465Z,3.58
2023-03-27T16:42:51.958Z,1.33
2023-03-27T16:45:19.255Z,1.50
2023-03-27T16:47:49.080Z,2.53
2023-03-27T16:50:21.967Z,1.83
2023-03-27T16:52:49.597Z,1.05
2023-03-27T16:55:17.554Z,1.83
2023-03-27T16:57:46.759Z,3.53
2023-03-27T17:00:15.764Z,1.85
2023-03-27T17:02:44.483Z,1.33
2023-03-27T17:05:12.093Z,1.88
2023-03-27T17:07:41.916Z,1.45
2023-03-27T17:10:10.467Z,2.33
2023-03-27T17:12:38.465Z,2.35
2023-03-27T17:15:06.667Z,2.20
2023-03-27T17:17:34.155Z,2.67
2023-03-27T17:20:01.754Z,4.18
2023-03-27T17:22:30.162Z,3.20
2023-03-27T17:25:01.248Z,3.67
2023-03-27T17:27:29.171Z,0.73
2023-03-27T17:29:56.648Z,1.70
2023-03-27T17:32:26.821Z,1.30
2023-03-27T17:34:55.056Z,2.35
2023-03-27T17:37:23.340Z,2.00
2023-03-27T17:39:50.575Z,2.95
2023-03-27T17:42:18.217Z,2.15
2023-03-27T17:44:45.719Z,2.15
2023-03-27T17:47:13.932Z,2.97
2023-03-27T17:49:43.358Z,4.07
2023-03-27T17:52:12.291Z,6.32
2023-03-27T17:54:39.918Z,5.40
2023-03-27T17:57:07.576Z,3.20
2023-03-27T17:59:36.551Z,3.35
2023-03-27T18:02:04.585Z,5.35
2023-03-27T18:04:33.191Z,3.55
2023-03-27T18:07:00.731Z,4.72
2023-03-27T18:09:27.944Z,4.97
2023-03-27T18:11:55.706Z,4.70
2023-03-27T18:14:22.935Z,6.55
2023-03-27T18:16:54.194Z,5.70
2023-03-27T18:19:26.713Z,4.93
2023-03-27T18:21:55.374Z,8.35
2023-03-27T18:24:22.619Z,6.47
2023-03-27T18:26:51.721Z,5.95
2023-03-27T18:29:21.253Z,4.10
2023-03-27T18:31:49.032Z,4.85
2023-03-27T18:34:16.717Z,5.75
2023-03-27T18:36:50.693Z,6.68
2023-03-27T18:39:19.171Z,5.57
2023-03-27T18:41:46.870Z,6.40
2023-03-27T18:44:14.678Z,6.65
2023-03-27T18:46:42.618Z,11.07
2023-03-27T18:49:21.459Z,12.30
2023-03-27T18:51:49.734Z,10.65
2023-03-27T18:54:17.407Z,9.75
2023-03-27T18:56:45.144Z,7.35
2023-03-27T18:59:12.473Z,8.52
2023-03-27T19:01:40.149Z,8.45
2023-03-27T19:04:07.624Z,8.10
2023-03-27T19:06:36.630Z,6.05
2023-03-27T19:09:04.039Z,6.57
2023-03-27T19:11:31.645Z,7.57
2023-03-27T19:14:17.526Z,6.55
2023-03-27T19:17:04.949Z,10.73
2023-03-27T19:19:55.331Z,6.87
2023-03-27T19:22:41.270Z,10.52
2023-03-27T19:25:27.762Z,6.85
2023-03-27T19:27:55.947Z,8.32
2023-03-27T19:30:23.477Z,9.30
2023-03-27T19:32:52.408Z,13.73
2023-03-27T19:35:20.677Z,9.95
2023-03-27T19:37:48.234Z,11.50
2023-03-27T19:40:16.000Z,14.00
2023-03-27T19:42:43.562Z,14.23
2023-03-27T19:45:11.453Z,17.25
2023-03-27T19:47:39.142Z,13.57
2023-03-27T19:50:08.558Z,15.32
2023-03-27T19:53:05.324Z,12.77
2023-03-27T19:55:35.956Z,13.93
2023-03-27T19:58:03.476Z,12.90
2023-03-27T20:00:32.222Z,12.00
2023-03-27T20:02:59.952Z,13.52
2023-03-27T20:05:29.532Z,11.90
2023-03-27T20:07:57.423Z,13.30
2023-03-27T20:10:27.116Z,15.10
2023-03-27T20:12:54.682Z,14.43
2023-03-27T20:15:22.690Z,14.73
2023-03-27T20:17:50.427Z,14.10
2023-03-27T20:20:18.155Z,18.38
2023-03-27T20:22:57.160Z,18.48
2023-03-27T20:25:25.529Z,21.63
2023-03-27T20:27:53.169Z,19.77
2023-03-27T20:30:20.452Z,19.13
2023-03-27T20:32:50.199Z,16.23
2023-03-27T20:35:24.199Z,14.88
2023-03-27T20:37:57.781Z,17.63
2023-03-27T20:40:27.919Z,14.48
2023-03-27T20:43:03.429Z,15.07
2023-03-27T20:45:31.550Z,15.32
2023-03-27T20:48:05.428Z,18.08
2023-03-27T20:50:35.298Z,18.13
2023-03-27T20:53:04.786Z,22.70
2023-03-27T20:55:34.672Z,15.15
2023-03-27T20:58:06.615Z,16.15
2023-03-27T21:00:34.963Z,15.90
2023-03-27T21:03:02.769Z,14.48
2023-03-27T21:05:32.693Z,14.32
2023-03-27T21:08:00.296Z,15.07
2023-03-27T21:10:27.565Z,16.20
2023-03-27T21:12:56.950Z,17.95
2023-03-27T21:15:24.486Z,18.98
2023-03-27T21:17:52.131Z,20.10
2023-03-27T21:20:19.394Z,19.50
2023-03-27T21:22:52.791Z,20.00
2023-03-27T21:25:21.697Z,22.95
2023-03-27T21:27:54.408Z,21.05
2023-03-27T21:30:22.206Z,19.27
2023-03-27T21:32:50.837Z,17.70
2023-03-27T21:35:18.676Z,15.48
2023-03-27T21:37:46.222Z,17.63
2023-03-27T21:40:13.528Z,14.82
2023-03-27T21:42:41.183Z,16.77
2023-03-27T21:45:08.895Z,15.77
2023-03-27T21:47:47.231Z,13.45
2023-03-27T21:50:15.466Z,12.18
2023-03-27T21:52:43.120Z,8.32
2023-03-27T21:55:10.447Z,10.68
2023-03-27T21:57:38.048Z,8.88
2023-03-27T22:00:06.875Z,8.05
2023-03-27T22:02:41.448Z,6.60
2023-03-27T22:05:09.038Z,9.85
2023-03-27T22:07:36.738Z,12.30
2023-03-27T22:10:06.482Z,10.02
2023-03-27T22:12:36.086Z,10.20
2023-03-27T22:15:04.895Z,7.05
2023-03-27T22:17:32.787Z,9.32
2023-03-27T22:20:00.256Z,8.55
2023-03-27T22:22:27.836Z,8.63
2023-03-27T22:24:55.061Z,10.68
2023-03-27T22:27:22.788Z,6.80
2023-03-27T22:29:50.026Z,9.05
2023-03-27T22:32:17.591Z,8.63
2023-03-27T22:34:44.943Z,7.20
2023-03-27T22:37:12.492Z,7.07
2023-03-27T22:39:39.726Z,5.30
2023-03-27T22:42:07.300Z,7.93
2023-03-27T22:44:34.693Z,8.20
2023-03-27T22:47:02.272Z,9.10
2023-03-27T22:49:29.517Z,10.38
2023-03-27T22:51:57.070Z,9.52
2023-03-27T22:54:24.442Z,7.40
2023-03-27T22:56:55.158Z,12.10
2023-03-27T22:59:22.596Z,11.88
2023-03-27T23:01:50.378Z,9.10
2023-03-27T23:04:17.686Z,9.50
2023-03-27T23:06:45.385Z,9.77
2023-03-27T23:09:12.652Z,7.28
2023-03-27T23:11:40.472Z,9.05
2023-03-27T23:14:07.709Z,9.48
2023-03-27T23:16:35.591Z,10.48
2023-03-27T23:19:03.333Z,8.30
2023-03-27T23:21:30.843Z,6.93
2023-03-27T23:23:58.099Z,6.28
2023-03-27T23:26:27.416Z,5.07
2023-03-27T23:28:54.692Z,4.05
2023-03-27T23:31:22.782Z,5.90
2023-03-27T23:33:51.273Z,6.45
2023-03-27T23:36:22.116Z,4.28
2023-03-27T23:38:51.615Z,4.70
2023-03-27T23:41:20.333Z,5.93
2023-03-27T23:43:48.157Z,5.45
2023-03-27T23:46:16.299Z,6.28
2023-03-27T23:48:44.809Z,3.58
2023-03-27T23:51:14.078Z,4.10
2023-03-27T23:53:41.622Z,4.47
2023-03-27T23:56:09.661Z,7.70
2023-03-27T23:58:37.539Z,6.03
